sensor_id;sensor_type;location;lat;lon;timestamp;P1;durP1;ratioP1;P2;durP2;ratioP2
62861;SDS011;48953;53.110;5.592;2023-05-10T00:01:30;7.53;;;6.35;;
62861;SDS011;48953;53.110;5.592;2023-05-10T00:03:56;9.43;;;6.90;;
62861;SDS011;48953;53.110;5.592;2023-05-10T00:06:22;10.00;;;7.38;;
62861;SDS011;48953;53.110;5.592;2023-05-10T00:08:48;8.48;;;6.93;;
62861;SDS011;48953;53.110;5.592;2023-05-10T00:11:14;8.18;;;7.28;;
62861;SDS011;48953;53.110;5.592;2023-05-10T00:13:40;10.73;;;7.97;;
62861;SDS011;48953;53.110;5.592;2023-05-10T00:16:06;9.63;;;7.88;;
62861;SDS011;48953;53.110;5.592;2023-05-10T00:18:32;12.00;;;9.10;;
62861;SDS011;48953;53.110;5.592;2023-05-10T00:20:58;13.05;;;10.23;;
62861;SDS011;48953;53.110;5.592;2023-05-10T00:23:24;15.27;;;9.23;;
62861;SDS011;48953;53.110;5.592;2023-05-10T00:25:52;18.60;;;10.35;;
62861;SDS011;48953;53.110;5.592;2023-05-10T00:28:19;26.75;;;10.70;;
62861;SDS011;48953;53.110;5.592;2023-05-10T00:30:45;21.00;;;10.25;;
62861;SDS011;48953;53.110;5.592;2023-05-10T00:33:11;26.30;;;10.93;;
62861;SDS011;48953;53.110;5.592;2023-05-10T00:35:37;25.67;;;9.52;;
62861;SDS011;48953;53.110;5.592;2023-05-10T00:38:03;27.38;;;9.82;;
62861;SDS011;48953;53.110;5.592;2023-05-10T00:40:29;26.73;;;10.25;;
62861;SDS011;48953;53.110;5.592;2023-05-10T00:42:56;23.17;;;9.75;;
62861;SDS011;48953;53.110;5.592;2023-05-10T00:45:22;20.40;;;10.57;;
62861;SDS011;48953;53.110;5.592;2023-05-10T00:47:48;19.77;;;9.60;;
62861;SDS011;48953;53.110;5.592;2023-05-10T00:50:14;25.52;;;9.18;;
62861;SDS011;48953;53.110;5.592;2023-05-10T00:52:40;29.13;;;10.35;;
62861;SDS011;48953;53.110;5.592;2023-05-10T00:55:07;20.65;;;9.40;;
62861;SDS011;48953;53.110;5.592;2023-05-10T00:57:33;19.60;;;10.63;;
62861;SDS011;48953;53.110;5.592;2023-05-10T00:59:59;15.13;;;11.27;;
62861;SDS011;48953;53.110;5.592;2023-05-10T01:02:26;18.33;;;12.10;;
62861;SDS011;48953;53.110;5.592;2023-05-10T01:04:52;16.73;;;12.80;;
62861;SDS011;48953;53.110;5.592;2023-05-10T01:07:19;13.93;;;11.75;;
62861;SDS011;48953;53.110;5.592;2023-05-10T01:09:45;15.85;;;11.75;;
62861;SDS011;48953;53.110;5.592;2023-05-10T01:14:43;13.77;;;11.75;;
62861;SDS011;48953;53.110;5.592;2023-05-10T01:17:10;12.60;;;10.63;;
62861;SDS011;48953;53.110;5.592;2023-05-10T01:19:37;12.80;;;10.15;;
62861;SDS011;48953;53.110;5.592;2023-05-10T01:27:46;12.82;;;8.88;;
62861;SDS011;48953;53.110;5.592;2023-05-10T01:38:04;12.90;;;7.03;;
62861;SDS011;48953;53.110;5.592;2023-05-10T01:40:28;13.88;;;7.93;;
62861;SDS011;48953;53.110;5.592;2023-05-10T01:43:03;17.65;;;7.78;;
62861;SDS011;48953;53.110;5.592;2023-05-10T01:45:41;15.32;;;7.10;;
62861;SDS011;48953;53.110;5.592;2023-05-10T01:48:10;15.55;;;7.05;;
62861;SDS011;48953;53.110;5.592;2023-05-10T01:50:38;16.55;;;7.47;;
62861;SDS011;48953;53.110;5.592;2023-05-10T01:53:06;11.73;;;7.10;;
62861;SDS011;48953;53.110;5.592;2023-05-10T01:55:33;12.20;;;7.03;;
62861;SDS011;48953;53.110;5.592;2023-05-10T01:58:10;11.77;;;7.63;;
62861;SDS011;48953;53.110;5.592;2023-05-10T02:00:44;11.88;;;7.10;;
62861;SDS011;48953;53.110;5.592;2023-05-10T02:03:11;12.90;;;7.78;;
62861;SDS011;48953;53.110;5.592;2023-05-10T02:05:38;10.50;;;7.53;;
62861;SDS011;48953;53.110;5.592;2023-05-10T02:08:07;11.27;;;7.35;;
62861;SDS011;48953;53.110;5.592;2023-05-10T02:10:36;11.95;;;8.25;;
62861;SDS011;48953;53.110;5.592;2023-05-10T02:13:03;12.02;;;8.10;;
62861;SDS011;48953;53.110;5.592;2023-05-10T02:15:31;11.00;;;8.52;;
62861;SDS011;48953;53.110;5.592;2023-05-10T02:17:58;10.68;;;8.15;;
62861;SDS011;48953;53.110;5.592;2023-05-10T02:20:25;12.88;;;8.98;;
62861;SDS011;48953;53.110;5.592;2023-05-10T02:22:51;7.72;;;6.88;;
62861;SDS011;48953;53.110;5.592;2023-05-10T02:25:19;8.80;;;7.90;;
62861;SDS011;48953;53.110;5.592;2023-05-10T02:27:46;7.80;;;7.00;;
62861;SDS011;48953;53.110;5.592;2023-05-10T02:30:13;7.47;;;6.68;;
62861;SDS011;48953;53.110;5.592;2023-05-10T02:32:39;7.45;;;6.40;;
62861;SDS011;48953;53.110;5.592;2023-05-10T02:35:05;6.72;;;6.03;;
62861;SDS011;48953;53.110;5.592;2023-05-10T02:37:32;7.18;;;6.43;;
62861;SDS011;48953;53.110;5.592;2023-05-10T02:39:59;7.57;;;6.88;;
62861;SDS011;48953;53.110;5.592;2023-05-10T02:42:27;6.63;;;5.90;;
62861;SDS011;48953;53.110;5.592;2023-05-10T02:44:56;8.93;;;6.50;;
62861;SDS011;48953;53.110;5.592;2023-05-10T02:47:25;7.07;;;6.07;;
62861;SDS011;48953;53.110;5.592;2023-05-10T02:49:51;7.00;;;5.25;;
62861;SDS011;48953;53.110;5.592;2023-05-10T02:52:19;7.32;;;5.68;;
62861;SDS011;48953;53.110;5.592;2023-05-10T02:57:15;6.93;;;4.97;;
62861;SDS011;48953;53.110;5.592;2023-05-10T02:59:43;6.07;;;5.47;;
62861;SDS011;48953;53.110;5.592;2023-05-10T03:02:10;6.55;;;5.95;;
62861;SDS011;48953;53.110;5.592;2023-05-10T03:04:36;5.75;;;5.20;;
62861;SDS011;48953;53.110;5.592;2023-05-10T03:07:02;7.60;;;5.20;;
62861;SDS011;48953;53.110;5.592;2023-05-10T03:09:28;5.00;;;4.50;;
62861;SDS011;48953;53.110;5.592;2023-05-10T03:15:01;5.32;;;4.82;;
62861;SDS011;48953;53.110;5.592;2023-05-10T03:19:48;5.80;;;5.25;;
62861;SDS011;48953;53.110;5.592;2023-05-10T03:22:34;6.00;;;5.22;;
62861;SDS011;48953;53.110;5.592;2023-05-10T03:25:10;5.15;;;4.63;;
62861;SDS011;48953;53.110;5.592;2023-05-10T03:27:37;7.10;;;5.40;;
62861;SDS011;48953;53.110;5.592;2023-05-10T03:30:04;6.05;;;5.45;;
62861;SDS011;48953;53.110;5.592;2023-05-10T03:32:31;5.80;;;5.20;;
62861;SDS011;48953;53.110;5.592;2023-05-10T03:34:57;6.13;;;5.53;;
62861;SDS011;48953;53.110;5.592;2023-05-10T03:37:23;6.43;;;5.03;;
62861;SDS011;48953;53.110;5.592;2023-05-10T03:39:49;5.45;;;4.85;;
62861;SDS011;48953;53.110;5.592;2023-05-10T03:42:15;7.43;;;4.60;;
62861;SDS011;48953;53.110;5.592;2023-05-10T03:44:42;7.78;;;4.75;;
62861;SDS011;48953;53.110;5.592;2023-05-10T03:47:08;4.50;;;4.00;;
62861;SDS011;48953;53.110;5.592;2023-05-10T03:49:34;4.70;;;3.78;;
62861;SDS011;48953;53.110;5.592;2023-05-10T03:52:04;5.75;;;3.97;;
62861;SDS011;48953;53.110;5.592;2023-05-10T03:54:30;4.47;;;4.07;;
62861;SDS011;48953;53.110;5.592;2023-05-10T03:56:57;4.22;;;3.83;;
62861;SDS011;48953;53.110;5.592;2023-05-10T03:59:23;6.88;;;4.65;;
62861;SDS011;48953;53.110;5.592;2023-05-10T04:01:49;4.53;;;3.90;;
62861;SDS011;48953;53.110;5.592;2023-05-10T04:04:15;5.32;;;4.03;;
62861;SDS011;48953;53.110;5.592;2023-05-10T04:06:43;5.97;;;4.60;;
62861;SDS011;48953;53.110;5.592;2023-05-10T04:09:10;5.05;;;4.55;;
62861;SDS011;48953;53.110;5.592;2023-05-10T04:11:36;6.07;;;5.43;;
62861;SDS011;48953;53.110;5.592;2023-05-10T04:14:02;4.93;;;4.43;;
62861;SDS011;48953;53.110;5.592;2023-05-10T04:16:28;5.95;;;5.10;;
62861;SDS011;48953;53.110;5.592;2023-05-10T04:18:54;6.30;;;5.43;;
62861;SDS011;48953;53.110;5.592;2023-05-10T04:21:20;7.38;;;5.00;;
62861;SDS011;48953;53.110;5.592;2023-05-10T04:23:46;7.28;;;4.47;;
62861;SDS011;48953;53.110;5.592;2023-05-10T04:26:12;6.00;;;5.18;;
62861;SDS011;48953;53.110;5.592;2023-05-10T04:28:38;6.35;;;5.00;;
62861;SDS011;48953;53.110;5.592;2023-05-10T04:31:08;5.95;;;5.35;;
62861;SDS011;48953;53.110;5.592;2023-05-10T04:36:01;6.85;;;5.28;;
62861;SDS011;48953;53.110;5.592;2023-05-10T04:38:27;7.18;;;5.88;;
62861;SDS011;48953;53.110;5.592;2023-05-10T04:40:53;6.82;;;5.57;;
62861;SDS011;48953;53.110;5.592;2023-05-10T04:43:19;7.00;;;6.15;;
62861;SDS011;48953;53.110;5.592;2023-05-10T04:45:45;6.10;;;4.35;;
62861;SDS011;48953;53.110;5.592;2023-05-10T04:48:11;4.47;;;3.70;;
62861;SDS011;48953;53.110;5.592;2023-05-10T04:50:40;4.35;;;3.80;;
62861;SDS011;48953;53.110;5.592;2023-05-10T04:53:06;3.42;;;3.13;;
62861;SDS011;48953;53.110;5.592;2023-05-10T04:55:32;3.42;;;2.70;;
62861;SDS011;48953;53.110;5.592;2023-05-10T04:57:58;5.32;;;2.97;;
62861;SDS011;48953;53.110;5.592;2023-05-10T05:00:24;3.88;;;3.47;;
62861;SDS011;48953;53.110;5.592;2023-05-10T05:02:50;3.03;;;2.40;;
62861;SDS011;48953;53.110;5.592;2023-05-10T05:05:16;3.17;;;2.53;;
62861;SDS011;48953;53.110;5.592;2023-05-10T05:07:42;3.53;;;2.97;;
62861;SDS011;48953;53.110;5.592;2023-05-10T05:10:08;5.43;;;3.85;;
62861;SDS011;48953;53.110;5.592;2023-05-10T05:12:34;5.07;;;3.95;;
62861;SDS011;48953;53.110;5.592;2023-05-10T05:15:01;9.45;;;4.75;;
62861;SDS011;48953;53.110;5.592;2023-05-10T05:17:27;6.72;;;4.70;;
62861;SDS011;48953;53.110;5.592;2023-05-10T05:19:53;6.47;;;4.70;;
62861;SDS011;48953;53.110;5.592;2023-05-10T05:22:19;6.93;;;4.75;;
62861;SDS011;48953;53.110;5.592;2023-05-10T05:24:52;7.20;;;4.78;;
62861;SDS011;48953;53.110;5.592;2023-05-10T05:27:18;5.75;;;4.90;;
62861;SDS011;48953;53.110;5.592;2023-05-10T05:29:45;5.53;;;4.30;;
62861;SDS011;48953;53.110;5.592;2023-05-10T05:34:57;6.28;;;4.68;;
62861;SDS011;48953;53.110;5.592;2023-05-10T05:37:23;6.10;;;4.28;;
62861;SDS011;48953;53.110;5.592;2023-05-10T05:39:49;4.85;;;3.55;;
62861;SDS011;48953;53.110;5.592;2023-05-10T05:42:15;7.95;;;3.70;;
62861;SDS011;48953;53.110;5.592;2023-05-10T05:44:43;5.03;;;3.10;;
62861;SDS011;48953;53.110;5.592;2023-05-10T05:47:09;5.43;;;3.08;;
62861;SDS011;48953;53.110;5.592;2023-05-10T05:49:35;3.78;;;2.78;;
62861;SDS011;48953;53.110;5.592;2023-05-10T05:52:02;4.35;;;2.50;;
62861;SDS011;48953;53.110;5.592;2023-05-10T05:54:28;5.07;;;2.35;;
62861;SDS011;48953;53.110;5.592;2023-05-10T05:56:55;3.28;;;2.10;;
62861;SDS011;48953;53.110;5.592;2023-05-10T05:59:21;5.28;;;2.53;;
62861;SDS011;48953;53.110;5.592;2023-05-10T06:01:47;2.88;;;2.38;;
62861;SDS011;48953;53.110;5.592;2023-05-10T06:04:13;3.75;;;1.95;;
62861;SDS011;48953;53.110;5.592;2023-05-10T06:06:39;2.60;;;1.88;;
62861;SDS011;48953;53.110;5.592;2023-05-10T06:09:05;3.63;;;1.83;;
62861;SDS011;48953;53.110;5.592;2023-05-10T06:11:31;2.85;;;1.60;;
62861;SDS011;48953;53.110;5.592;2023-05-10T06:14:00;2.65;;;1.50;;
62861;SDS011;48953;53.110;5.592;2023-05-10T06:16:27;2.42;;;1.60;;
62861;SDS011;48953;53.110;5.592;2023-05-10T06:18:58;2.60;;;1.83;;
62861;SDS011;48953;53.110;5.592;2023-05-10T06:21:24;2.30;;;1.70;;
62861;SDS011;48953;53.110;5.592;2023-05-10T06:23:50;2.30;;;1.35;;
62861;SDS011;48953;53.110;5.592;2023-05-10T06:26:16;1.88;;;1.48;;
62861;SDS011;48953;53.110;5.592;2023-05-10T06:28:42;2.60;;;1.60;;
62861;SDS011;48953;53.110;5.592;2023-05-10T06:31:08;1.67;;;1.38;;
62861;SDS011;48953;53.110;5.592;2023-05-10T06:33:36;3.15;;;1.73;;
62861;SDS011;48953;53.110;5.592;2023-05-10T06:36:02;2.03;;;1.50;;
62861;SDS011;48953;53.110;5.592;2023-05-10T06:38:28;2.40;;;1.63;;
62861;SDS011;48953;53.110;5.592;2023-05-10T06:40:54;2.40;;;1.75;;
62861;SDS011;48953;53.110;5.592;2023-05-10T06:43:20;2.33;;;1.65;;
62861;SDS011;48953;53.110;5.592;2023-05-10T06:45:47;3.00;;;1.80;;
62861;SDS011;48953;53.110;5.592;2023-05-10T06:48:13;2.38;;;1.88;;
62861;SDS011;48953;53.110;5.592;2023-05-10T06:50:39;4.03;;;2.08;;
62861;SDS011;48953;53.110;5.592;2023-05-10T06:53:05;3.33;;;2.22;;
62861;SDS011;48953;53.110;5.592;2023-05-10T06:55:31;5.05;;;2.63;;
62861;SDS011;48953;53.110;5.592;2023-05-10T06:57:57;3.90;;;2.63;;
62861;SDS011;48953;53.110;5.592;2023-05-10T07:00:24;2.63;;;1.92;;
62861;SDS011;48953;53.110;5.592;2023-05-10T07:02:51;3.80;;;2.30;;
62861;SDS011;48953;53.110;5.592;2023-05-10T07:05:17;2.47;;;2.25;;
62861;SDS011;48953;53.110;5.592;2023-05-10T07:07:43;3.65;;;2.20;;
62861;SDS011;48953;53.110;5.592;2023-05-10T07:10:09;2.58;;;1.70;;
62861;SDS011;48953;53.110;5.592;2023-05-10T07:12:35;2.90;;;1.90;;
62861;SDS011;48953;53.110;5.592;2023-05-10T07:15:01;2.38;;;2.00;;
62861;SDS011;48953;53.110;5.592;2023-05-10T07:17:27;2.22;;;1.88;;
62861;SDS011;48953;53.110;5.592;2023-05-10T07:19:53;2.10;;;1.90;;
62861;SDS011;48953;53.110;5.592;2023-05-10T07:22:19;4.10;;;2.15;;
62861;SDS011;48953;53.110;5.592;2023-05-10T07:24:45;3.45;;;2.13;;
62861;SDS011;48953;53.110;5.592;2023-05-10T07:27:11;2.30;;;2.03;;
62861;SDS011;48953;53.110;5.592;2023-05-10T07:29:38;3.15;;;1.98;;
62861;SDS011;48953;53.110;5.592;2023-05-10T07:32:04;3.35;;;2.10;;
62861;SDS011;48953;53.110;5.592;2023-05-10T07:34:30;1.83;;;1.70;;
62861;SDS011;48953;53.110;5.592;2023-05-10T07:36:57;1.85;;;1.48;;
62861;SDS011;48953;53.110;5.592;2023-05-10T07:39:23;2.95;;;1.67;;
62861;SDS011;48953;53.110;5.592;2023-05-10T07:41:49;2.45;;;1.50;;
62861;SDS011;48953;53.110;5.592;2023-05-10T07:44:20;1.48;;;1.20;;
62861;SDS011;48953;53.110;5.592;2023-05-10T07:46:46;1.20;;;1.10;;
62861;SDS011;48953;53.110;5.592;2023-05-10T07:49:13;1.23;;;1.10;;
62861;SDS011;48953;53.110;5.592;2023-05-10T07:51:39;1.73;;;1.27;;
62861;SDS011;48953;53.110;5.592;2023-05-10T07:54:05;1.50;;;1.40;;
62861;SDS011;48953;53.110;5.592;2023-05-10T07:56:32;2.47;;;1.48;;
62861;SDS011;48953;53.110;5.592;2023-05-10T07:58:59;2.85;;;1.65;;
62861;SDS011;48953;53.110;5.592;2023-05-10T08:01:25;3.50;;;1.90;;
62861;SDS011;48953;53.110;5.592;2023-05-10T08:03:52;2.17;;;1.80;;
62861;SDS011;48953;53.110;5.592;2023-05-10T08:06:18;3.05;;;1.85;;
62861;SDS011;48953;53.110;5.592;2023-05-10T08:08:45;2.85;;;2.13;;
62861;SDS011;48953;53.110;5.592;2023-05-10T08:11:14;2.50;;;2.25;;
62861;SDS011;48953;53.110;5.592;2023-05-10T08:13:40;4.38;;;2.67;;
62861;SDS011;48953;53.110;5.592;2023-05-10T08:16:06;3.83;;;2.55;;
62861;SDS011;48953;53.110;5.592;2023-05-10T08:18:32;3.47;;;2.47;;
62861;SDS011;48953;53.110;5.592;2023-05-10T08:20:58;2.78;;;2.42;;
62861;SDS011;48953;53.110;5.592;2023-05-10T08:23:24;3.95;;;2.70;;
62861;SDS011;48953;53.110;5.592;2023-05-10T08:25:56;3.72;;;3.08;;
62861;SDS011;48953;53.110;5.592;2023-05-10T08:28:22;3.22;;;2.67;;
62861;SDS011;48953;53.110;5.592;2023-05-10T08:30:49;2.08;;;1.88;;
62861;SDS011;48953;53.110;5.592;2023-05-10T08:33:17;3.25;;;2.33;;
62861;SDS011;48953;53.110;5.592;2023-05-10T08:35:43;3.38;;;2.97;;
62861;SDS011;48953;53.110;5.592;2023-05-10T08:38:09;5.80;;;3.35;;
62861;SDS011;48953;53.110;5.592;2023-05-10T08:40:36;4.95;;;3.72;;
62861;SDS011;48953;53.110;5.592;2023-05-10T08:43:06;4.85;;;3.45;;
62861;SDS011;48953;53.110;5.592;2023-05-10T08:45:33;4.32;;;3.45;;
62861;SDS011;48953;53.110;5.592;2023-05-10T08:48:02;6.40;;;3.63;;
62861;SDS011;48953;53.110;5.592;2023-05-10T08:50:30;5.97;;;4.10;;
62861;SDS011;48953;53.110;5.592;2023-05-10T08:52:57;5.38;;;3.67;;
62861;SDS011;48953;53.110;5.592;2023-05-10T08:55:24;5.20;;;3.75;;
62861;SDS011;48953;53.110;5.592;2023-05-10T08:57:50;5.90;;;4.60;;
62861;SDS011;48953;53.110;5.592;2023-05-10T09:00:17;7.32;;;5.03;;
62861;SDS011;48953;53.110;5.592;2023-05-10T09:02:43;10.68;;;6.05;;
62861;SDS011;48953;53.110;5.592;2023-05-10T09:05:10;9.18;;;6.43;;
62861;SDS011;48953;53.110;5.592;2023-05-10T09:07:36;10.60;;;6.43;;
62861;SDS011;48953;53.110;5.592;2023-05-10T09:10:04;9.75;;;6.70;;
62861;SDS011;48953;53.110;5.592;2023-05-10T09:12:31;9.43;;;6.13;;
62861;SDS011;48953;53.110;5.592;2023-05-10T09:14:57;10.30;;;6.88;;
62861;SDS011;48953;53.110;5.592;2023-05-10T09:17:25;8.73;;;5.85;;
62861;SDS011;48953;53.110;5.592;2023-05-10T09:19:57;9.32;;;6.35;;
62861;SDS011;48953;53.110;5.592;2023-05-10T09:22:23;11.75;;;6.53;;
62861;SDS011;48953;53.110;5.592;2023-05-10T09:25:02;10.48;;;6.80;;
62861;SDS011;48953;53.110;5.592;2023-05-10T09:27:28;9.50;;;6.55;;
62861;SDS011;48953;53.110;5.592;2023-05-10T09:29:54;10.02;;;6.82;;
62861;SDS011;48953;53.110;5.592;2023-05-10T09:32:20;10.35;;;7.15;;
62861;SDS011;48953;53.110;5.592;2023-05-10T09:34:46;8.75;;;6.88;;
62861;SDS011;48953;53.110;5.592;2023-05-10T09:37:15;8.65;;;6.30;;
62861;SDS011;48953;53.110;5.592;2023-05-10T09:39:42;9.85;;;6.25;;
62861;SDS011;48953;53.110;5.592;2023-05-10T09:42:08;8.60;;;6.60;;
62861;SDS011;48953;53.110;5.592;2023-05-10T09:44:35;9.55;;;6.47;;
62861;SDS011;48953;53.110;5.592;2023-05-10T09:47:01;7.63;;;5.93;;
62861;SDS011;48953;53.110;5.592;2023-05-10T09:49:28;8.00;;;6.15;;
62861;SDS011;48953;53.110;5.592;2023-05-10T09:52:04;9.88;;;6.15;;
62861;SDS011;48953;53.110;5.592;2023-05-10T09:54:31;9.43;;;6.68;;
62861;SDS011;48953;53.110;5.592;2023-05-10T09:56:58;8.80;;;6.90;;
62861;SDS011;48953;53.110;5.592;2023-05-10T09:59:27;9.35;;;6.82;;
62861;SDS011;48953;53.110;5.592;2023-05-10T10:01:59;8.23;;;6.22;;
62861;SDS011;48953;53.110;5.592;2023-05-10T10:04:26;7.90;;;5.43;;
62861;SDS011;48953;53.110;5.592;2023-05-10T10:06:58;7.65;;;4.93;;
62861;SDS011;48953;53.110;5.592;2023-05-10T10:09:25;8.27;;;5.70;;
62861;SDS011;48953;53.110;5.592;2023-05-10T10:11:52;10.25;;;7.13;;
62861;SDS011;48953;53.110;5.592;2023-05-10T10:14:20;12.10;;;8.88;;
62861;SDS011;48953;53.110;5.592;2023-05-10T10:16:48;14.63;;;8.98;;
62861;SDS011;48953;53.110;5.592;2023-05-10T10:19:15;11.80;;;7.68;;
62861;SDS011;48953;53.110;5.592;2023-05-10T10:21:41;12.05;;;8.32;;
62861;SDS011;48953;53.110;5.592;2023-05-10T10:24:06;14.05;;;8.50;;
62861;SDS011;48953;53.110;5.592;2023-05-10T10:26:35;10.63;;;7.47;;
62861;SDS011;48953;53.110;5.592;2023-05-10T10:29:26;9.55;;;7.30;;
62861;SDS011;48953;53.110;5.592;2023-05-10T10:34:35;8.85;;;6.88;;
62861;SDS011;48953;53.110;5.592;2023-05-10T10:37:05;8.70;;;6.65;;
62861;SDS011;48953;53.110;5.592;2023-05-10T10:39:31;7.90;;;6.65;;
62861;SDS011;48953;53.110;5.592;2023-05-10T10:41:58;8.07;;;5.95;;
62861;SDS011;48953;53.110;5.592;2023-05-10T10:44:26;7.88;;;6.28;;
62861;SDS011;48953;53.110;5.592;2023-05-10T10:47:05;8.82;;;6.50;;
62861;SDS011;48953;53.110;5.592;2023-05-10T10:52:24;8.70;;;6.38;;
62861;SDS011;48953;53.110;5.592;2023-05-10T10:55:15;7.93;;;6.45;;
62861;SDS011;48953;53.110;5.592;2023-05-10T11:00:25;8.45;;;6.35;;
62861;SDS011;48953;53.110;5.592;2023-05-10T11:05:26;7.10;;;5.53;;
62861;SDS011;48953;53.110;5.592;2023-05-10T11:08:12;5.38;;;4.35;;
62861;SDS011;48953;53.110;5.592;2023-05-10T11:10:38;6.07;;;5.25;;
62861;SDS011;48953;53.110;5.592;2023-05-10T11:13:05;7.80;;;5.70;;
62861;SDS011;48953;53.110;5.592;2023-05-10T11:15:32;7.15;;;5.32;;
62861;SDS011;48953;53.110;5.592;2023-05-10T11:17:58;5.55;;;5.00;;
62861;SDS011;48953;53.110;5.592;2023-05-10T11:20:27;6.80;;;4.90;;
62861;SDS011;48953;53.110;5.592;2023-05-10T11:25:42;4.30;;;3.88;;
62861;SDS011;48953;53.110;5.592;2023-05-10T11:28:12;5.47;;;4.97;;
62861;SDS011;48953;53.110;5.592;2023-05-10T11:30:39;6.45;;;4.70;;
62861;SDS011;48953;53.110;5.592;2023-05-10T11:33:06;6.13;;;5.53;;
62861;SDS011;48953;53.110;5.592;2023-05-10T11:35:38;7.70;;;5.30;;
62861;SDS011;48953;53.110;5.592;2023-05-10T11:38:08;6.60;;;5.13;;
62861;SDS011;48953;53.110;5.592;2023-05-10T11:40:34;6.65;;;5.78;;
62861;SDS011;48953;53.110;5.592;2023-05-10T11:43:01;7.65;;;6.55;;
62861;SDS011;48953;53.110;5.592;2023-05-10T11:45:27;7.82;;;6.57;;
62861;SDS011;48953;53.110;5.592;2023-05-10T11:47:55;8.85;;;6.97;;
62861;SDS011;48953;53.110;5.592;2023-05-10T11:50:21;8.77;;;6.70;;
62861;SDS011;48953;53.110;5.592;2023-05-10T11:52:50;8.07;;;6.13;;
62861;SDS011;48953;53.110;5.592;2023-05-10T11:55:17;8.13;;;6.57;;
62861;SDS011;48953;53.110;5.592;2023-05-10T11:57:43;8.05;;;6.20;;
62861;SDS011;48953;53.110;5.592;2023-05-10T12:00:11;9.32;;;7.32;;
62861;SDS011;48953;53.110;5.592;2023-05-10T12:02:37;10.20;;;7.60;;
62861;SDS011;48953;53.110;5.592;2023-05-10T12:05:03;10.15;;;7.78;;
62861;SDS011;48953;53.110;5.592;2023-05-10T12:07:30;13.35;;;10.00;;
62861;SDS011;48953;53.110;5.592;2023-05-10T12:10:29;13.35;;;9.43;;
62861;SDS011;48953;53.110;5.592;2023-05-10T12:12:48;12.27;;;8.93;;
62861;SDS011;48953;53.110;5.592;2023-05-10T12:15:21;10.52;;;8.13;;
62861;SDS011;48953;53.110;5.592;2023-05-10T12:17:47;13.23;;;8.57;;
62861;SDS011;48953;53.110;5.592;2023-05-10T12:20:20;12.00;;;8.45;;
62861;SDS011;48953;53.110;5.592;2023-05-10T12:22:50;12.88;;;9.00;;
62861;SDS011;48953;53.110;5.592;2023-05-10T12:25:20;9.85;;;7.88;;
62861;SDS011;48953;53.110;5.592;2023-05-10T12:27:53;9.27;;;7.72;;
62861;SDS011;48953;53.110;5.592;2023-05-10T12:30:23;11.25;;;8.23;;
62861;SDS011;48953;53.110;5.592;2023-05-10T12:32:49;11.35;;;8.15;;
62861;SDS011;48953;53.110;5.592;2023-05-10T12:35:15;10.80;;;7.18;;
62861;SDS011;48953;53.110;5.592;2023-05-10T12:37:44;10.60;;;6.68;;
62861;SDS011;48953;53.110;5.592;2023-05-10T12:40:10;10.70;;;7.57;;
62861;SDS011;48953;53.110;5.592;2023-05-10T12:42:37;10.07;;;7.70;;
62861;SDS011;48953;53.110;5.592;2023-05-10T12:45:07;8.18;;;6.65;;
62861;SDS011;48953;53.110;5.592;2023-05-10T12:47:33;10.98;;;7.72;;
62861;SDS011;48953;53.110;5.592;2023-05-10T12:50:00;11.32;;;7.90;;
62861;SDS011;48953;53.110;5.592;2023-05-10T12:55:27;8.55;;;6.35;;
62861;SDS011;48953;53.110;5.592;2023-05-10T12:57:53;11.00;;;7.82;;
62861;SDS011;48953;53.110;5.592;2023-05-10T13:00:19;9.07;;;7.80;;
62861;SDS011;48953;53.110;5.592;2023-05-10T13:02:45;7.95;;;6.93;;
62861;SDS011;48953;53.110;5.592;2023-05-10T13:05:11;7.20;;;6.45;;
62861;SDS011;48953;53.110;5.592;2023-05-10T13:07:38;8.18;;;7.38;;
62861;SDS011;48953;53.110;5.592;2023-05-10T13:10:05;7.38;;;6.13;;
62861;SDS011;48953;53.110;5.592;2023-05-10T13:12:31;8.90;;;7.65;;
62861;SDS011;48953;53.110;5.592;2023-05-10T13:14:57;9.48;;;6.50;;
62861;SDS011;48953;53.110;5.592;2023-05-10T13:17:24;9.55;;;7.32;;
62861;SDS011;48953;53.110;5.592;2023-05-10T13:19:50;8.85;;;7.68;;
62861;SDS011;48953;53.110;5.592;2023-05-10T13:22:16;7.75;;;6.85;;
62861;SDS011;48953;53.110;5.592;2023-05-10T13:24:49;8.98;;;7.53;;
62861;SDS011;48953;53.110;5.592;2023-05-10T13:27:15;8.45;;;7.20;;
62861;SDS011;48953;53.110;5.592;2023-05-10T13:29:41;7.93;;;7.13;;
62861;SDS011;48953;53.110;5.592;2023-05-10T13:32:09;7.68;;;6.68;;
62861;SDS011;48953;53.110;5.592;2023-05-10T13:34:36;6.82;;;6.10;;
62861;SDS011;48953;53.110;5.592;2023-05-10T13:37:02;6.40;;;5.78;;
62861;SDS011;48953;53.110;5.592;2023-05-10T13:39:28;7.35;;;6.22;;
62861;SDS011;48953;53.110;5.592;2023-05-10T13:41:58;8.15;;;7.10;;
62861;SDS011;48953;53.110;5.592;2023-05-10T13:44:24;7.70;;;6.13;;
62861;SDS011;48953;53.110;5.592;2023-05-10T13:46:50;7.63;;;6.20;;
62861;SDS011;48953;53.110;5.592;2023-05-10T13:49:16;6.07;;;5.47;;
62861;SDS011;48953;53.110;5.592;2023-05-10T13:51:43;7.05;;;6.18;;
62861;SDS011;48953;53.110;5.592;2023-05-10T13:54:09;6.70;;;4.65;;
62861;SDS011;48953;53.110;5.592;2023-05-10T13:56:35;6.03;;;5.13;;
62861;SDS011;48953;53.110;5.592;2023-05-10T13:59:01;4.93;;;4.53;;
62861;SDS011;48953;53.110;5.592;2023-05-10T14:01:27;5.40;;;4.90;;
62861;SDS011;48953;53.110;5.592;2023-05-10T14:03:53;6.40;;;5.80;;
62861;SDS011;48953;53.110;5.592;2023-05-10T14:06:19;5.95;;;5.35;;
62861;SDS011;48953;53.110;5.592;2023-05-10T14:08:45;5.38;;;4.88;;
62861;SDS011;48953;53.110;5.592;2023-05-10T14:11:11;5.47;;;4.97;;
62861;SDS011;48953;53.110;5.592;2023-05-10T14:13:37;4.50;;;4.10;;
62861;SDS011;48953;53.110;5.592;2023-05-10T14:16:05;6.82;;;5.00;;
62861;SDS011;48953;53.110;5.592;2023-05-10T14:18:31;5.85;;;5.35;;
62861;SDS011;48953;53.110;5.592;2023-05-10T14:20:58;6.82;;;5.97;;
62861;SDS011;48953;53.110;5.592;2023-05-10T14:23:23;6.55;;;5.88;;
62861;SDS011;48953;53.110;5.592;2023-05-10T14:25:51;6.20;;;5.40;;
62861;SDS011;48953;53.110;5.592;2023-05-10T14:28:18;6.65;;;6.05;;
62861;SDS011;48953;53.110;5.592;2023-05-10T14:30:45;7.65;;;6.80;;
62861;SDS011;48953;53.110;5.592;2023-05-10T14:33:11;7.07;;;6.38;;
62861;SDS011;48953;53.110;5.592;2023-05-10T14:35:37;8.07;;;7.18;;
62861;SDS011;48953;53.110;5.592;2023-05-10T14:38:03;8.20;;;7.30;;
62861;SDS011;48953;53.110;5.592;2023-05-10T14:40:30;8.07;;;7.28;;
62861;SDS011;48953;53.110;5.592;2023-05-10T14:42:56;7.00;;;6.18;;
62861;SDS011;48953;53.110;5.592;2023-05-10T14:45:22;7.10;;;5.78;;
62861;SDS011;48953;53.110;5.592;2023-05-10T14:47:49;7.35;;;5.85;;
62861;SDS011;48953;53.110;5.592;2023-05-10T14:50:15;6.75;;;4.80;;
62861;SDS011;48953;53.110;5.592;2023-05-10T14:52:42;7.28;;;5.72;;
62861;SDS011;48953;53.110;5.592;2023-05-10T14:55:09;7.70;;;6.88;;
62861;SDS011;48953;53.110;5.592;2023-05-10T14:57:35;6.43;;;5.63;;
62861;SDS011;48953;53.110;5.592;2023-05-10T15:00:02;6.35;;;5.40;;
62861;SDS011;48953;53.110;5.592;2023-05-10T15:02:30;5.70;;;5.05;;
62861;SDS011;48953;53.110;5.592;2023-05-10T15:04:56;6.72;;;5.32;;
62861;SDS011;48953;53.110;5.592;2023-05-10T15:07:22;6.07;;;5.47;;
62861;SDS011;48953;53.110;5.592;2023-05-10T15:09:49;6.03;;;5.40;;
62861;SDS011;48953;53.110;5.592;2023-05-10T15:12:16;5.03;;;4.53;;
62861;SDS011;48953;53.110;5.592;2023-05-10T15:14:42;6.72;;;6.03;;
62861;SDS011;48953;53.110;5.592;2023-05-10T15:17:08;6.00;;;5.20;;
62861;SDS011;48953;53.110;5.592;2023-05-10T15:19:35;6.35;;;5.75;;
62861;SDS011;48953;53.110;5.592;2023-05-10T15:22:01;6.32;;;5.72;;
62861;SDS011;48953;53.110;5.592;2023-05-10T15:24:27;6.53;;;5.93;;
62861;SDS011;48953;53.110;5.592;2023-05-10T15:26:53;5.97;;;5.38;;
62861;SDS011;48953;53.110;5.592;2023-05-10T15:29:19;6.60;;;5.57;;